Station: Kuitpo

  Atmospheric Gas Attenuation - ITU Rec 676-11   --------------- db/100km ---------------
Date Time Temp RH % AH g/m3 Dew Point Wind Direction Speed kph Gust kph Barometer mB Rainfall Since 9am 24GHz 47GHz 76GHz 122GHz 134GHz 241GHz
21 17:40 11 82 8.21 8 35 44 1003.2 0.2 18.9 25.7 39.2 102.9 95.9 329.5
21 17:30 11.3 85 8.67 8.9 33 44 1003.2 0 19.9 26.4 40.9 107.5 101.7 350.0
21 17:20 11.8 80 8.42 8.5 39 54 1003 0 19.3 25.8 39.6 104.1 97.7 335.9
21 17:10 12.7 72 8.02 7.8 30 41 1002.9 0 18.4 24.9 37.6 98.6 91.3 313.6
21 17:00 12.9 70 7.89 7.6 33 54 1002.6 0 18.1 24.6 36.9 97.0 89.4 306.9
21 16:50 13.2 68 7.81 7.4 35 50 1002.7 0 17.9 24.4 36.5 95.8 88.0 302.1
21 16:40 13.2 68 7.81 7.4 33 48 1002.7 0 17.9 24.4 36.5 95.8 88.0 302.1
21 16:30 14 65 7.84 7.5 33 54 1002.6 0 18.0 24.2 36.2 95.1 87.5 300.4
21 16:20 13.8 65 7.74 7.3 24 32 1002.7 0 17.8 24.1 36.0 94.3 86.4 296.7
21 16:10 14.1 66 8.01 7.9 28 46 1002.6 0 18.3 24.5 36.9 96.8 89.5 307.6
21 16:00 13.3 68 7.86 7.5 28 44 1002.8 0 18.0 24.5 36.7 96.2 88.5 304.0
21 15:50 13.7 68 8.05 7.9 26 33 1003.1 0 18.4 24.7 37.2 97.7 90.5 311.1
21 15:40 13.5 67 7.84 7.5 32 43 1003.1 0 18.0 24.4 36.5 95.8 88.1 302.4
21 15:30 13.9 64 7.67 7.2 26 41 1003 0 17.6 24.0 35.7 93.5 85.5 293.3
21 15:20 14.1 63 7.65 7.2 30 39 1003 0 17.6 23.9 35.5 93.1 85.0 291.7
21 15:10 15 62 7.95 7.8 26 32 1003.1 0 18.2 24.2 36.2 95.1 87.8 301.6
21 15:00 14.7 63 7.93 7.7 30 54 1002.9 0 18.1 24.2 36.3 95.2 87.9 301.8
21 14:50 14.8 63 7.98 7.8 28 43 1003.2 0 18.2 24.3 36.4 95.7 88.4 303.7
21 14:40 14.5 61 7.59 7.1 35 41 1003.2 0 17.4 23.7 35.1 92.0 83.8 287.6
21 14:30 14.6 66 8.26 8.3 30 50 1003 0 18.8 24.7 37.6 98.8 92.2 316.9
21 14:20 15.2 65 8.44 8.7 28 39 1003.2 0 19.2 24.9 38.0 99.9 93.8 322.6
21 14:10 14.3 67 8.23 8.3 24 32 1003.2 0 18.8 24.8 37.6 98.9 92.2 316.8
21 14:00 14.5 66 8.21 8.2 30 52 1003 0 18.7 24.7 37.5 98.4 91.7 315.1
21 13:50 14.4 66 8.16 8.1 26 37 1003.2 0 18.6 24.7 37.3 98.0 91.1 313.3
21 13:40 14.1 65 7.89 7.6 35 44 1003.3 0 18.1 24.3 36.4 95.6 88.1 302.4
21 13:30 14.2 63 7.69 7.3 32 54 1003.2 0 17.6 24.0 35.6 93.4 85.4 293.1
21 13:20 14.3 65 7.99 7.8 35 46 1003.3 0 18.3 24.4 36.7 96.4 89.1 306.1
21 13:10 14.7 64 8.06 8 26 32 1003.4 0 18.4 24.4 36.8 96.6 89.5 307.7
21 13:00 14.1 64 7.77 7.4 37 65 1003.1 0 17.8 24.1 36.0 94.3 86.5 297.0
21 12:50 13.6 61 7.18 6.2 52 69 1003.2 0 16.6 23.3 33.9 88.9 79.6 272.9
21 12:40 14.7 58 7.3 6.5 32 43 1003.1 0 16.8 23.2 33.9 88.9 80.0 274.3
21 12:30 14.6 58 7.26 6.4 30 48 1003 0 16.7 23.2 33.8 88.6 79.6 272.9
21 12:20 13.6 61 7.18 6.2 37 50 1003.2 0 16.6 23.3 33.9 88.9 79.6 272.9
21 12:10 13.8 60 7.15 6.2 32 44 1003.1 0 16.5 23.2 33.7 88.4 79.1 270.9
21 12:00 13.7 58 6.87 5.6 35 57 1002.9 0 15.9 22.8 32.7 85.7 75.7 259.0
21 11:50 13.7 57 6.75 5.3 33 43 1003 0 15.7 22.7 32.3 84.5 74.2 253.9
21 11:40 13.8 56 6.67 5.2 33 41 1003.1 0 15.5 22.5 31.9 83.6 73.2 250.2
21 11:30 13.4 55 6.39 4.6 44 63 1003.1 0 14.9 22.2 31.1 81.2 70.1 239.4
21 11:20 13.6 52 6.12 3.9 41 59 1003 0 14.3 21.8 30.0 78.4 66.7 227.4
21 11:10 14.2 52 6.35 4.5 30 35 1003 0 14.8 21.9 30.6 80.0 68.9 235.4
21 11:00 13.6 53 6.24 4.2 33 61 1002.9 0 14.6 21.9 30.4 79.6 68.1 232.5
21 10:50 13.9 51 6.11 3.9 46 65 1003 0 14.3 21.7 29.8 78.0 66.3 226.2
21 10:40 13.6 50 5.88 3.4 39 54 1003.1 0 13.8 21.4 29.1 76.1 63.8 217.4
21 10:30 14.6 50 6.26 4.3 35 65 1002.9 0 14.6 21.7 30.1 78.8 67.5 230.4
21 10:20 13.8 47 5.6 2.7 32 43 1003.2 0 13.2 21.0 28.1 73.3 60.4 205.4
21 10:10 13.7 45 5.33 2 35 48 1003.2 0 12.6 20.6 27.2 70.8 57.3 194.6
21 10:00 13.5 46 5.38 2.1 35 67 1002.9 0 12.7 20.7 27.4 71.4 58.0 197.1
21 09:50 13.6 47 5.53 2.5 22 35 1003.1 0 13.1 20.9 27.9 72.8 59.7 203.0
21 09:40 13.3 51 5.89 3.4 20 26 1003.1 0 13.8 21.5 29.3 76.5 64.2 218.7
21 09:30 12.9 50 5.64 2.7 26 41 1002.9 0 13.3 21.2 28.5 74.4 61.5 209.3
21 09:20 12.8 53 5.94 3.5 22 33 1003.2 0 14.0 21.7 29.6 77.5 65.2 222.1
21 09:10 12.3 55 5.97 3.5 19 26 1003.4 0 14.0 21.9 29.9 78.2 66.0 224.8
21 09:00 12.1 54 5.79 3.1 20 39 1003.2 0 13.7 21.6 29.4 76.7 64.0 217.7
21 08:50 11.6 56 5.82 3.1 24 32 1003.5 5.2 13.8 21.8 29.7 77.5 64.8 220.4
21 08:40 11.4 57 5.85 3.2 20 32 1003.5 5.2 13.8 21.9 29.8 78.0 65.3 222.3
21 08:30 11.1 60 6.04 3.6 26 43 1003.5 5.2 14.2 22.3 30.7 80.1 67.9 231.3
21 08:20 10.8 62 6.13 3.8 22 28 1003.4 5.2 14.4 22.5 31.1 81.3 69.2 236.0
21 08:10 10.5 66 6.4 4.4 24 33 1003.5 5.2 15.0 23.0 32.2 84.4 72.9 248.8
21 08:00 10.3 67 6.42 4.5 20 39 1003.4 5.2 15.1 23.0 32.4 84.8 73.3 250.3
21 07:50 10.2 68 6.47 4.6 24 28 1003.7 5.2 15.2 23.1 32.6 85.4 74.1 252.9
21 07:40 10 72 6.77 5.2 19 22 1003.9 5.2 15.8 23.7 33.9 88.8 78.1 267.1
21 07:30 9.8 75 6.96 5.6 17 28 1003.6 5.2 16.3 24.0 34.7 91.0 80.8 276.3
21 07:20 9.5 78 7.1 5.9 19 26 1003.7 5.2 16.6 24.3 35.4 92.8 82.9 283.8
21 07:08 9.2 78 6.97 5.6 20 26 1003.8 5.2 16.3 24.2 35.0 91.8 81.5 278.9
21 07:00 9 79 6.97 5.6 13 19 1003.6 5.2 16.3 24.3 35.1 92.0 81.7 279.6
21 06:50 8.9 77 6.75 5.1 9 13 1003.8 5.2 15.8 23.9 34.3 89.8 79.0 269.9
21 06:40 9 76 6.7 5 17 20 1003.8 5.2 15.7 23.8 34.0 89.2 78.2 267.3
21 06:30 8.9 77 6.75 5.1 17 30 1003.6 5.2 15.8 23.9 34.3 89.8 78.9 269.8
21 06:20 8.7 78 6.75 5.1 19 22 1003.8 5.2 15.9 24.0 34.4 90.1 79.2 270.6
21 06:10 8.9 76 6.66 4.9 19 22 1003.8 5.2 15.7 23.8 33.9 88.9 77.8 265.8
21 06:00 8.8 77 6.7 5 17 28 1003.6 5.2 15.7 23.9 34.1 89.4 78.4 267.9
21 05:50 8.9 78 6.84 5.3 19 26 1003.7 5.2 16.0 24.1 34.6 90.8 80.1 274.0
21 05:40 8.9 78 6.84 5.3 15 20 1003.9 5.2 16.0 24.1 34.6 90.8 80.1 274.0
21 05:30 8.9 78 6.84 5.3 19 28 1003.6 5.2 16.0 24.1 34.6 90.8 80.1 274.0
21 05:20 9.1 78 6.92 5.5 19 24 1003.8 5.2 16.2 24.2 34.9 91.4 81.0 277.0
21 05:10 9.1 79 7.01 5.7 19 20 1003.8 5.2 16.4 24.3 35.2 92.4 82.2 281.1
21 04:50 8.9 82 7.19 6 19 22 1003.8 5.2 16.8 24.6 36.0 94.5 84.8 290.2
21 04:40 9.1 81 7.19 6 17 20 1003.8 5.2 16.8 24.6 36.0 94.3 84.5 289.5
21 04:30 9.1 81 7.19 6 17 24 1003.6 5.2 16.8 24.6 35.9 94.3 84.5 289.4
21 04:20 9.2 79 7.06 5.8 19 22 1003.8 5.2 16.5 24.3 35.4 92.8 82.7 283.1
21 04:10 9.1 79 7.01 5.7 17 22 1003.9 5.2 16.4 24.3 35.2 92.4 82.2 281.2
21 04:00 9.1 78 6.92 5.5 19 28 1003.7 5.2 16.2 24.1 34.9 91.4 81.0 277.0
21 03:50 9.2 77 6.88 5.4 19 24 1003.9 5.2 16.1 24.1 34.7 90.9 80.4 274.8
21 03:40 9.1 78 6.92 5.5 19 22 1003.9 5.2 16.2 24.2 34.9 91.4 81.0 277.0
21 03:30 9.2 78 6.97 5.6 17 24 1003.7 5.2 16.3 24.2 35.0 91.8 81.5 278.9
21 03:20 9.3 77 6.92 5.5 17 24 1003.9 5.2 16.2 24.1 34.8 91.2 80.8 276.3
21 03:10 9.4 77 6.97 5.6 19 26 1003.8 5.2 16.3 24.1 34.9 91.6 81.3 278.2
21 03:00 9.6 75 6.87 5.4 22 30 1003.6 5.2 16.1 23.9 34.4 90.3 79.8 272.9
21 02:50 9.4 75 6.79 5.2 19 26 1003.8 5.2 15.9 23.9 34.2 89.7 79.0 270.0
21 02:40 9.4 75 6.79 5.2 20 26 1003.8 5.2 15.9 23.9 34.2 89.7 79.0 270.0
21 02:30 9.6 74 6.78 5.2 20 30 1003.7 5.2 15.9 23.8 34.1 89.3 78.6 268.8
21 02:20 9.6 75 6.87 5.4 19 30 1004.1 5.2 16.1 23.9 34.5 90.3 79.8 273.0
21 02:10 9.7 74 6.82 5.3 22 30 1004.2 5.2 16.0 23.8 34.2 89.7 79.1 270.4
21 02:00 9.9 74 6.91 5.5 20 39 1004.1 5.2 16.1 23.9 34.5 90.4 80.0 273.8
21 01:50 10.2 73 6.95 5.6 22 33 1004.4 5.2 16.2 23.9 34.5 90.5 80.3 274.6
21 01:40 10.3 72 6.9 5.5 26 39 1004.6 5.2 16.1 23.8 34.3 89.9 79.5 272.1
21 01:30 10.6 74 7.22 6.2 26 48 1004.7 5.2 16.8 24.3 35.4 92.9 83.4 285.6
21 01:20 10.8 76 7.51 6.7 26 33 1004.9 5.2 17.4 24.7 36.5 95.8 87.0 298.2
21 01:10 10.9 76 7.56 6.8 26 33 1005 5.2 17.5 24.7 36.7 96.2 87.5 300.1
21 01:00 10.9 77 7.66 7 20 30 1004.9 5.2 17.7 24.9 37.1 97.2 88.8 304.7

Last Refresh: 21-Sep-2020 17:47:22

Most of the information presented on this site is sourced from the Bureau of Meteorology.  Copyright in all material sourced from the Bureau of Meteorology resides with the Commonwealth of Australia.